Time;durP1;ratioP1;P1;durP2;ratioP2;P2;SDS_P1;SDS_P2;PMS_P1;PMS_P2;Temp;Humidity;BMP_temperature;BMP_pressure;BME280_temperature;BME280_humidity;BME280_pressure;Samples;Min_cycle;Max_cycle;Signal;HPM_P1;HPM_P2
2022/12/15 00:38:55;;;;;;;;;;;;;;;-147.11;100.00;61570.13;5068300;28;19999;-52
2022/12/15 00:41:21;;;;;;;;;;;;;;;-147.11;100.00;61570.13;5072737;28;19913;-54
2022/12/15 00:43:46;;;;;;;;;;;;;;;-147.11;100.00;61570.13;5067257;28;19932;-53
2022/12/15 00:48:56;;;;;;;;;;;;;;;-147.11;100.00;61570.13;5069654;28;19923;-51
2022/12/15 00:51:21;;;;;;;;;;;;;;;-147.11;100.00;61570.13;5074030;28;19912;-52
2022/12/15 01:21:09;;;;;;;;;;;;;;;-147.11;100.00;61570.13;5063768;28;20196;-54
2022/12/15 01:23:35;;;;;;;;;;;;;;;-147.11;100.00;61570.13;5071407;28;19954;-55
2022/12/15 01:26:00;;;;;;;;;;;;;;;-147.11;100.00;61570.13;5068332;28;19917;-55
2022/12/15 01:28:26;;;;;;;;;;;;;;;-147.11;100.00;61570.13;5070659;28;19944;-52
2022/12/15 01:30:51;;;;;;;;;;;;;;;-147.11;100.00;61570.13;5063822;28;20358;-55
2022/12/15 01:33:17;;;;;;;;;;;;;;;-147.11;100.00;61570.13;5067783;28;19917;-54
2022/12/15 01:35:42;;;;;;;;;;;;;;;-147.11;100.00;61570.13;5075744;28;20031;-54
2022/12/15 01:38:08;;;;;;;;;;;;;;;-147.11;100.00;61570.13;5074162;28;20397;-54
2022/12/15 01:40:46;;;;;;;;;;;;;;;-147.11;100.00;61570.13;5066071;28;19912;-58
2022/12/15 01:43:22;;;;;;;;;;;;;;;-147.11;100.00;61570.13;5064089;28;19970;-53
2022/12/15 01:46:06;;;;;;;;;;;;;;;-147.11;100.00;61570.13;5063887;28;19921;-56
2022/12/15 01:48:32;;;;;;;;;;;;;;;-147.11;100.00;61570.13;5075624;28;19920;-54
2022/12/15 01:51:00;;;;;;;;;;;;;;;-147.11;100.00;61570.13;5063143;28;19920;-56
2022/12/15 01:53:26;;;;;;;;;;;;;;;-147.11;100.00;61570.13;5061677;28;19924;-55
2022/12/15 01:55:51;;;;;;;;;;;;;;;-147.11;100.00;61570.13;5055872;28;19923;-55
2022/12/15 01:58:17;;;;;;;;;;;;;;;-147.11;100.00;61570.13;5068603;28;19921;-55
2022/12/15 02:00:43;;;;;;;;;;;;;;;-147.11;100.00;61570.13;5069859;28;19916;-59
2022/12/15 02:03:08;;;;;;;;;;;;;;;-147.11;100.00;61570.13;5067562;28;20022;-55
2022/12/15 02:05:34;;;;;;;;;;;;;;;-147.11;100.00;61570.13;5065466;28;19931;-55
2022/12/15 02:08:00;;;;;;;;;;;;;;;-147.11;100.00;61570.13;5067842;28;19924;-55
2022/12/15 02:10:28;;;;;;;;;;;;;;;-147.11;100.00;61570.13;5070788;28;20042;-57
2022/12/15 02:12:53;;;;;;;;;;;;;;;-147.11;100.00;61570.13;5069909;28;19922;-56
2022/12/15 02:15:29;;;;;;;;;;;;;;;-147.11;100.00;61570.13;5069043;28;19931;-55
2022/12/15 02:18:03;;;;;;;;;;;;;;;-147.11;100.00;61570.13;5072820;28;20007;-56
2022/12/15 02:20:34;;;;;;;;;;;;;;;-147.11;100.00;61570.13;5068859;28;19917;-53
2022/12/15 02:22:59;;;;;;;;;;;;;;;-147.11;100.00;61570.13;5072220;28;20290;-56
2022/12/15 02:25:53;;;;;;;;;;;;;;;-147.11;100.00;61570.13;5069532;28;19917;-53
2022/12/15 02:28:38;;;;;;;;;;;;;;;-147.11;100.00;61570.13;5074120;28;19942;-56
2022/12/15 02:34:03;;;;;;;;;;;;;;;-147.11;100.00;61570.13;5062792;28;19931;-57
2022/12/15 02:36:34;;;;;;;;;;;;;;;-147.11;100.00;61570.13;5066248;28;19917;-53
2022/12/15 02:39:00;;;;;;;;;;;;;;;-147.11;100.00;61570.13;5068335;28;19943;-55
2022/12/15 02:41:45;;;;;;;;;;;;;;;-147.11;100.00;61570.13;5066993;28;20323;-56
2022/12/15 02:44:19;;;;;;;;;;;;;;;-147.11;100.00;61570.13;5070443;28;19935;-53
2022/12/15 02:47:03;;;;;;;;;;;;;;;-147.11;100.00;61570.13;5065304;28;19994;-52
2022/12/15 02:49:28;;;;;;;;;;;;;;;-147.11;100.00;61570.13;5070543;28;21185;-63
2022/12/15 02:52:03;;;;;;;;;;;;;;;-147.11;100.00;61570.13;5071055;28;20003;-58
2022/12/15 02:54:34;;;;;;;;;;;;;;;-147.11;100.00;61570.13;5069570;28;19916;-59
2022/12/15 02:57:04;;;;;;;;;;;;;;;-147.11;100.00;61570.13;5073296;28;20002;-58
2022/12/15 02:59:42;;;;;;;;;;;;;;;-147.11;100.00;61570.13;5069921;28;19955;-57
2022/12/15 03:02:08;;;;;;;;;;;;;;;-147.11;100.00;61570.13;5073168;28;19917;-56
2022/12/15 03:04:33;;;;;;;;;;;;;;;-147.11;100.00;61570.13;5071544;28;19935;-57
2022/12/15 03:07:02;;;;;;;;;;;;;;;-147.11;100.00;61570.13;5076183;28;20302;-55
2022/12/15 03:09:28;;;;;;;;;;;;;;;-147.11;100.00;61570.13;5073556;28;19919;-56
2022/12/15 03:11:53;;;;;;;;;;;;;;;-147.11;100.00;61570.13;5075699;28;20298;-59
2022/12/15 03:14:19;;;;;;;;;;;;;;;-147.11;100.00;61570.13;5070684;28;19927;-58
2022/12/15 03:16:45;;;;;;;;;;;;;;;-147.11;100.00;61570.13;5075669;28;19930;-57
2022/12/15 03:19:10;;;;;;;;;;;;;;;-147.11;100.00;61570.13;5074262;28;19917;-56
2022/12/15 03:21:35;;;;;;;;;;;;;;;-147.11;100.00;61570.13;5073666;28;20011;-55
2022/12/15 03:24:01;;;;;;;;;;;;;;;-147.11;100.00;61570.13;5077563;28;19934;-57
2022/12/15 03:26:26;;;;;;;;;;;;;;;-147.11;100.00;61570.13;5073579;28;19924;-56
2022/12/15 03:28:51;;;;;;;;;;;;;;;-147.11;100.00;61570.13;5070329;28;20015;-59
2022/12/15 03:31:17;;;;;;;;;;;;;;;-147.11;100.00;61570.13;5074232;28;19916;-59
2022/12/15 03:33:42;;;;;;;;;;;;;;;-147.11;100.00;61570.13;5071321;28;20023;-57
2022/12/15 03:36:07;;;;;;;;;;;;;;;-147.11;100.00;61570.13;5067792;28;19955;-57
2022/12/15 03:38:33;;;;;;;;;;;;;;;-147.11;100.00;61570.13;5072329;28;19912;-58
2022/12/15 03:40:58;;;;;;;;;;;;;;;-147.11;100.00;61570.13;5072205;28;20525;-54
2022/12/15 03:43:23;;;;;;;;;;;;;;;-147.11;100.00;61570.13;5069691;28;19922;-59
2022/12/15 03:45:49;;;;;;;;;;;;;;;-147.11;100.00;61570.13;5057744;28;19929;-57
2022/12/15 03:48:14;;;;;;;;;;;;;;;-147.11;100.00;61570.13;5066486;28;20291;-58
2022/12/15 03:50:39;;;;;;;;;;;;;;;-147.11;100.00;61570.13;5050463;28;20436;-53
2022/12/15 03:53:05;;;;;;;;;;;;;;;-147.11;100.00;61570.13;5073132;28;20298;-56
2022/12/15 03:55:31;;;;;;;;;;;;;;;-147.11;100.00;61570.13;5069201;28;19916;-53
2022/12/15 03:57:57;;;;;;;;;;;;;;;-147.11;100.00;61570.13;5070718;28;19955;-53
2022/12/15 04:00:23;;;;;;;;;;;;;;;-147.11;100.00;61570.13;5066206;28;21026;-53
2022/12/15 04:02:49;;;;;;;;;;;;;;;-147.11;100.00;61570.13;5063646;28;20026;-60
2022/12/15 04:05:19;;;;;;;;;;;;;;;-147.11;100.00;61570.13;5069357;28;20396;-53
2022/12/15 04:07:45;;;;;;;;;;;;;;;-147.11;100.00;61570.13;5072329;28;19916;-53
2022/12/15 04:10:10;;;;;;;;;;;;;;;-147.11;100.00;61570.13;5073906;28;20407;-55
2022/12/15 04:12:38;;;;;;;;;;;;;;;-147.11;100.00;61570.13;5070996;28;19913;-54
2022/12/15 04:15:04;;;;;;;;;;;;;;;-147.11;100.00;61570.13;5052487;28;19924;-58
2022/12/15 04:17:30;;;;;;;;;;;;;;;-147.11;100.00;61570.13;5073818;28;20395;-52
2022/12/15 04:20:10;;;;;;;;;;;;;;;-147.11;100.00;61570.13;5071336;28;19950;-56
2022/12/15 04:22:37;;;;;;;;;;;;;;;-147.11;100.00;61570.13;5068332;28;19925;-59
2022/12/15 05:33:22;;;;;;;;;;;;;;;-147.11;100.00;61570.13;5063098;28;20398;-53
2022/12/15 05:35:48;;;;;;;;;;;;;;;-147.11;100.00;61570.13;5046514;28;19924;-54
2022/12/15 05:38:14;;;;;;;;;;;;;;;-147.11;100.00;61570.13;5059069;28;20015;-55
2022/12/15 05:40:39;;;;;;;;;;;;;;;-147.11;100.00;61570.13;5058944;28;19986;-56
2022/12/15 05:43:05;;;;;;;;;;;;;;;-147.11;100.00;61570.13;5068449;28;19917;-53
2022/12/15 05:45:30;;;;;;;;;;;;;;;-147.11;100.00;61570.13;5067852;28;19959;-53
2022/12/15 05:47:56;;;;;;;;;;;;;;;-147.11;100.00;61570.13;5060685;28;19924;-51
2022/12/15 05:50:21;;;;;;;;;;;;;;;-147.11;100.00;61570.13;5071914;28;19928;-54
2022/12/15 05:52:48;;;;;;;;;;;;;;;-147.11;100.00;61570.13;5069463;28;19948;-53
2022/12/15 05:55:14;;;;;;;;;;;;;;;-147.11;100.00;61570.13;5068042;28;19924;-53
2022/12/15 05:57:39;;;;;;;;;;;;;;;-147.11;100.00;61570.13;5065899;28;20283;-53
2022/12/15 06:00:05;;;;;;;;;;;;;;;-147.11;100.00;61570.13;5062663;28;19923;-57
2022/12/15 06:02:30;;;;;;;;;;;;;;;-147.11;100.00;61570.13;5064636;28;19927;-55
2022/12/15 06:04:55;;;;;;;;;;;;;;;-147.11;100.00;61570.13;5062885;28;20374;-55
2022/12/15 06:07:21;;;;;;;;;;;;;;;-147.11;100.00;61570.13;5063971;28;19935;-53
2022/12/15 06:09:46;;;;;;;;;;;;;;;-147.11;100.00;61570.13;5074811;28;19959;-54
2022/12/15 06:12:11;;;;;;;;;;;;;;;-147.11;100.00;61570.13;5055212;28;20303;-54
2022/12/15 06:14:37;;;;;;;;;;;;;;;-147.11;100.00;61570.13;5069076;28;19962;-53
2022/12/15 06:17:02;;;;;;;;;;;;;;;-147.11;100.00;61570.13;5070638;28;20387;-52
2022/12/15 06:19:28;;;;;;;;;;;;;;;-147.11;100.00;61570.13;5069921;28;19977;-52
2022/12/15 06:21:53;;;;;;;;;;;;;;;-147.11;100.00;61570.13;5069346;28;20290;-53
2022/12/15 06:24:19;;;;;;;;;;;;;;;-147.11;100.00;61570.13;5081743;28;19927;-52
2022/12/15 06:26:44;;;;;;;;;;;;;;;-147.11;100.00;61570.13;5074998;28;19997;-55
2022/12/15 06:29:12;;;;;;;;;;;;;;;-147.11;100.00;61570.13;5072780;28;19991;-53
2022/12/15 06:31:38;;;;;;;;;;;;;;;-147.11;100.00;61570.13;5072156;28;19951;-57
2022/12/15 06:34:05;;;;;;;;;;;;;;;-147.11;100.00;61570.13;5074119;28;19916;-54
2022/12/15 06:36:30;;;;;;;;;;;;;;;-147.11;100.00;61570.13;5071704;28;20459;-53
2022/12/15 06:38:59;;;;;;;;;;;;;;;-147.11;100.00;61570.13;5077552;28;20456;-53
2022/12/15 06:41:25;;;;;;;;;;;;;;;-147.11;100.00;61570.13;5070828;28;19956;-53
2022/12/15 06:43:51;;;;;;;;;;;;;;;-147.11;100.00;61570.13;5073194;28;19993;-53
2022/12/15 06:46:16;;;;;;;;;;;;;;;-147.11;100.00;61570.13;5079701;28;19956;-53
2022/12/15 06:48:44;;;;;;;;;;;;;;;-147.11;100.00;61570.13;5077995;28;19960;-55
2022/12/15 06:51:10;;;;;;;;;;;;;;;-147.11;100.00;61570.13;5076359;28;20015;-53
2022/12/15 06:53:36;;;;;;;;;;;;;;;-147.11;100.00;61570.13;5099570;22;20015;-53
2022/12/15 06:56:03;;;;;;;;;;;;;;;-147.11;100.00;61570.13;5081847;28;19924;-54
2022/12/15 06:58:29;;;;;;;;;;;;;;;-147.11;100.00;61570.13;5086155;28;19916;-53
2022/12/15 07:00:55;;;;;;;;;;;;;;;-147.11;100.00;61570.13;5084141;28;20302;-53
2022/12/15 07:03:20;;;;;;;;;;;;;;;-147.11;100.00;61570.13;5087311;28;20299;-52
2022/12/15 07:05:46;;;;;;;;;;;;;;;-147.11;100.00;61570.13;5079870;28;20001;-51
2022/12/15 07:08:12;;;;;;;;;;;;;;;-147.11;100.00;61570.13;5087927;28;20020;-52
2022/12/15 07:10:43;;;;;;;;;;;;;;;-147.11;100.00;61570.13;5077734;28;19920;-52
2022/12/15 07:13:11;;;;;;;;;;;;;;;-147.11;100.00;61570.13;5082584;28;19927;-52
2022/12/15 07:15:37;;;;;;;;;;;;;;;-147.11;100.00;61570.13;5077372;28;19924;-52
2022/12/15 07:18:03;;;;;;;;;;;;;;;-147.11;100.00;61570.13;5081069;28;20862;-52
2022/12/15 07:20:28;;;;;;;;;;;;;;;-147.11;100.00;61570.13;5080595;28;20511;-52
2022/12/15 07:22:54;;;;;;;;;;;;;;;-147.11;100.00;61570.13;5068345;28;19970;-51
2022/12/15 07:25:19;;;;;;;;;;;;;;;-147.11;100.00;61570.13;5076504;28;19942;-52
2022/12/15 07:27:45;;;;;;;;;;;;;;;-147.11;100.00;61570.13;5083235;28;20227;-53
2022/12/15 07:30:11;;;;;;;;;;;;;;;-147.11;100.00;61570.13;5085515;28;19921;-52
2022/12/15 07:32:36;;;;;;;;;;;;;;;-147.11;100.00;61570.13;5081616;28;20007;-53
2022/12/15 07:35:04;;;;;;;;;;;;;;;-147.11;100.00;61570.13;5078841;28;19916;-53
2022/12/15 07:37:29;;;;;;;;;;;;;;;-147.11;100.00;61570.13;5077551;28;20499;-52
2022/12/15 07:39:55;;;;;;;;;;;;;;;-147.11;100.00;61570.13;5082418;28;19920;-52
2022/12/15 07:42:20;;;;;;;;;;;;;;;-147.11;100.00;61570.13;5063550;28;20184;-52
2022/12/15 07:44:45;;;;;;;;;;;;;;;-147.11;100.00;61570.13;5079278;28;19916;-52
2022/12/15 07:47:10;;;;;;;;;;;;;;;-147.11;100.00;61570.13;5083692;28;19924;-52
2022/12/15 07:49:36;;;;;;;;;;;;;;;-147.11;100.00;61570.13;5081535;28;19955;-52
2022/12/15 07:52:01;;;;;;;;;;;;;;;-147.11;100.00;61570.13;5082209;28;19959;-55
2022/12/15 07:54:28;;;;;;;;;;;;;;;-147.11;100.00;61570.13;5081950;28;19919;-53
2022/12/15 07:56:53;;;;;;;;;;;;;;;-147.11;100.00;61570.13;5081086;28;19920;-53
2022/12/15 07:59:18;;;;;;;;;;;;;;;-147.11;100.00;61570.13;5080262;28;20015;-52
2022/12/15 08:01:44;;;;;;;;;;;;;;;-147.11;100.00;61570.13;5082045;28;20367;-52
2022/12/15 08:04:09;;;;;;;;;;;;;;;-147.11;100.00;61570.13;5079114;28;20329;-52
2022/12/15 08:06:35;;;;;;;;;;;;;;;-147.11;100.00;61570.13;5107585;27;19920;-52
2022/12/15 08:09:00;;;;;;;;;;;;;;;-147.11;100.00;61570.13;5098440;28;19920;-53
2022/12/15 08:11:25;;;;;;;;;;;;;;;-147.11;100.00;61570.13;5103221;28;19974;-52
2022/12/15 08:13:51;;;;;;;;;;;;;;;-147.11;100.00;61570.13;5102448;28;19920;-54
2022/12/15 08:16:17;;;;;;;;;;;;;;;-147.11;100.00;61570.13;5101496;28;20417;-54
2022/12/15 08:18:42;;;;;;;;;;;;;;;-147.11;100.00;61570.13;5102662;28;20340;-53
2022/12/15 08:21:08;;;;;;;;;;;;;;;-147.11;100.00;61570.13;5099761;27;19916;-52
2022/12/15 08:23:34;;;;;;;;;;;;;;;-147.11;100.00;61570.13;5097191;28;20348;-53
2022/12/15 08:26:04;;;;;;;;;;;;;;;-147.11;100.00;61570.13;5098732;28;19919;-52
2022/12/15 08:28:31;;;;;;;;;;;;;;;-147.11;100.00;61570.13;5100132;28;19973;-53
2022/12/15 08:31:00;;;;;;;;;;;;;;;-147.11;100.00;61570.13;5102970;28;20413;-53
2022/12/15 08:33:26;;;;;;;;;;;;;;;-147.11;100.00;61570.13;5093756;28;20074;-53
2022/12/15 08:35:51;;;;;;;;;;;;;;;-147.11;100.00;61570.13;5109268;28;20006;-53
2022/12/15 08:38:16;;;;;;;;;;;;;;;-147.11;100.00;61570.13;5107070;28;20002;-52
2022/12/15 08:40:42;;;;;;;;;;;;;;;-147.11;100.00;61570.13;5098720;27;19920;-52
2022/12/15 08:43:07;;;;;;;;;;;;;;;-147.11;100.00;61570.13;5098382;28;20635;-53
2022/12/15 08:45:32;;;;;;;;;;;;;;;-147.11;100.00;61570.13;5104678;28;20359;-53
2022/12/15 08:47:57;;;;;;;;;;;;;;;-147.11;100.00;61570.13;5101057;28;20021;-55
2022/12/15 08:50:23;;;;;;;;;;;;;;;-147.11;100.00;61570.13;5104362;28;19931;-52
2022/12/15 08:52:48;;;;;;;;;;;;;;;-147.11;100.00;61570.13;5098478;28;20014;-54
2022/12/15 08:55:14;;;;;;;;;;;;;;;-147.11;100.00;61570.13;5085827;28;19920;-52
2022/12/15 08:57:39;;;;;;;;;;;;;;;-147.11;100.00;61570.13;5093916;28;20371;-52
2022/12/15 09:00:05;;;;;;;;;;;;;;;-147.11;100.00;61570.13;5097654;28;19951;-53
2022/12/15 09:02:31;;;;;;;;;;;;;;;-147.11;100.00;61570.13;5096193;28;19924;-52
2022/12/15 09:04:56;;;;;;;;;;;;;;;-147.11;100.00;61570.13;5101382;27;20287;-52
2022/12/15 09:07:21;;;;;;;;;;;;;;;-147.11;100.00;61570.13;5085019;27;19969;-52
2022/12/15 09:09:47;;;;;;;;;;;;;;;-147.11;100.00;61570.13;5105801;27;19920;-52
2022/12/15 09:12:12;;;;;;;;;;;;;;;-147.11;100.00;61570.13;5103953;27;20189;-53
2022/12/15 09:14:38;;;;;;;;;;;;;;;-147.11;100.00;61570.13;5092637;27;19946;-52
2022/12/15 09:17:03;;;;;;;;;;;;;;;-147.11;100.00;61570.13;5104419;28;19912;-52
2022/12/15 09:19:29;;;;;;;;;;;;;;;-147.11;100.00;61570.13;5104649;28;19924;-53
2022/12/15 09:21:54;;;;;;;;;;;;;;;-147.11;100.00;61570.13;5104726;28;20290;-53
2022/12/15 09:24:19;;;;;;;;;;;;;;;-147.11;100.00;61570.13;5090856;28;20053;-53
2022/12/15 09:26:45;;;;;;;;;;;;;;;-147.11;100.00;61570.13;5099986;28;19912;-53
2022/12/15 09:29:13;;;;;;;;;;;;;;;-147.11;100.00;61570.13;5099293;28;20485;-51
2022/12/15 09:31:39;;;;;;;;;;;;;;;-147.11;100.00;61570.13;5087298;28;20025;-54
2022/12/15 09:34:04;;;;;;;;;;;;;;;-147.11;100.00;61570.13;5089001;28;20413;-52
2022/12/15 09:36:31;;;;;;;;;;;;;;;-147.11;100.00;61570.13;5101289;28;19920;-53
2022/12/15 09:38:57;;;;;;;;;;;;;;;-147.11;100.00;61570.13;5099580;28;19916;-52
2022/12/15 09:41:24;;;;;;;;;;;;;;;-147.11;100.00;61570.13;5102132;28;19916;-53
2022/12/15 09:43:52;;;;;;;;;;;;;;;-147.11;100.00;61570.13;5104377;28;19920;-52
2022/12/15 09:46:17;;;;;;;;;;;;;;;-147.11;100.00;61570.13;5104833;28;19915;-53
2022/12/15 09:48:44;;;;;;;;;;;;;;;-147.11;100.00;61570.13;5096238;28;19920;-54
2022/12/15 09:51:11;;;;;;;;;;;;;;;-147.11;100.00;61570.13;5104881;28;20310;-53
2022/12/15 09:53:37;;;;;;;;;;;;;;;-147.11;100.00;61570.13;5108121;28;19915;-54
2022/12/15 09:56:07;;;;;;;;;;;;;;;-147.11;100.00;61570.13;5096691;28;19919;-53
2022/12/15 09:58:51;;;;;;;;;;;;;;;-147.11;100.00;61570.13;5085243;28;19920;-52
2022/12/15 10:01:25;;;;;;;;;;;;;;;-147.11;100.00;61570.13;5105977;28;19919;-53
2022/12/15 10:04:05;;;;;;;;;;;;;;;-147.11;100.00;61570.13;5092460;28;19924;-53
2022/12/15 10:06:34;;;;;;;;;;;;;;;-147.11;100.00;61570.13;5101917;27;20335;-52
2022/12/15 10:09:02;;;;;;;;;;;;;;;-147.11;100.00;61570.13;5100118;28;19912;-53
2022/12/15 10:11:45;;;;;;;;;;;;;;;-147.11;100.00;61570.13;5106435;27;19920;-52
2022/12/15 10:14:14;;;;;;;;;;;;;;;-147.11;100.00;61570.13;5103261;28;19968;-52
2022/12/15 10:17:00;;;;;;;;;;;;;;;-147.11;100.00;61570.13;5108466;27;19923;-52
2022/12/15 10:19:40;;;;;;;;;;;;;;;-147.11;100.00;61570.13;5097157;28;20290;-52
2022/12/15 10:22:10;;;;;;;;;;;;;;;-147.11;100.00;61570.13;5105265;27;19916;-52
2022/12/15 10:24:35;;;;;;;;;;;;;;;-147.11;100.00;61570.13;5098741;27;19931;-52
2022/12/15 10:27:05;;;;;;;;;;;;;;;-147.11;100.00;61570.13;5105931;28;19931;-53
2022/12/15 10:29:39;;;;;;;;;;;;;;;-147.11;100.00;61570.13;5098810;28;19912;-53
2022/12/15 10:32:13;;;;;;;;;;;;;;;-147.11;100.00;61570.13;5105682;28;19998;-53
2022/12/15 10:34:39;;;;;;;;;;;;;;;-147.11;100.00;61570.13;5097541;27;19916;-52
2022/12/15 10:37:05;;;;;;;;;;;;;;;-147.11;100.00;61570.13;5113939;27;19916;-52
2022/12/15 10:39:38;;;;;;;;;;;;;;;-147.11;100.00;61570.13;5099787;28;20397;-52
2022/12/15 10:42:11;;;;;;;;;;;;;;;-147.11;100.00;61570.13;5101140;28;20431;-53
2022/12/15 10:44:37;;;;;;;;;;;;;;;-147.11;100.00;61570.13;5090384;28;19930;-52
2022/12/15 10:47:30;;;;;;;;;;;;;;;-147.11;100.00;61570.13;5102888;28;19920;-53
2022/12/15 10:50:14;;;;;;;;;;;;;;;-147.11;100.00;61570.13;5098362;27;19951;-52
2022/12/15 10:52:40;;;;;;;;;;;;;;;-147.11;100.00;61570.13;5102447;27;20017;-52
2022/12/15 10:55:23;;;;;;;;;;;;;;;-147.11;100.00;61570.13;5106591;27;19986;-52
2022/12/15 10:57:59;;;;;;;;;;;;;;;-147.11;100.00;61570.13;5090165;28;20057;-53
2022/12/15 11:00:27;;;;;;;;;;;;;;;-147.11;100.00;61570.13;5107146;28;19912;-53
2022/12/15 11:02:53;;;;;;;;;;;;;;;-147.11;100.00;61570.13;5098116;27;19978;-53
2022/12/15 11:05:18;;;;;;;;;;;;;;;-147.11;100.00;61570.13;5104617;27;19974;-54
2022/12/15 11:07:49;;;;;;;;;;;;;;;-147.11;100.00;61570.13;5104892;27;19932;-52
2022/12/15 11:10:14;;;;;;;;;;;;;;;-147.11;100.00;61570.13;5107883;27;19920;-54
2022/12/15 11:12:51;;;;;;;;;;;;;;;-147.11;100.00;61570.13;5107547;27;20594;-53
2022/12/15 11:15:20;;;;;;;;;;;;;;;-147.11;100.00;61570.13;5107422;27;19958;-52
2022/12/15 11:17:47;;;;;;;;;;;;;;;-147.11;100.00;61570.13;5107253;27;19950;-53
2022/12/15 11:20:19;;;;;;;;;;;;;;;-147.11;100.00;61570.13;5098818;27;19927;-53
2022/12/15 11:22:49;;;;;;;;;;;;;;;-147.11;100.00;61570.13;5104587;28;19961;-52
2022/12/15 11:25:14;;;;;;;;;;;;;;;-147.11;100.00;61570.13;5098581;27;20019;-52
2022/12/15 11:27:42;;;;;;;;;;;;;;;-147.11;100.00;61570.13;5109461;27;20011;-52
2022/12/15 11:30:14;;;;;;;;;;;;;;;-147.11;100.00;61570.13;5108486;27;20350;-52
2022/12/15 11:32:59;;;;;;;;;;;;;;;-147.11;100.00;61570.13;5096944;27;20390;-53
2022/12/15 11:35:26;;;;;;;;;;;;;;;-147.11;100.00;61570.13;5104871;27;20030;-52
2022/12/15 11:38:12;;;;;;;;;;;;;;;-147.11;100.00;61570.13;5100307;27;19931;-52
2022/12/15 11:40:38;;;;;;;;;;;;;;;-147.11;100.00;61570.13;5103495;27;19912;-52
2022/12/15 11:43:10;;;;;;;;;;;;;;;-147.11;100.00;61570.13;5097064;28;19924;-53
2022/12/15 11:45:41;;;;;;;;;;;;;;;-147.11;100.00;61570.13;5098450;27;20392;-53
2022/12/15 11:48:09;;;;;;;;;;;;;;;-147.11;100.00;61570.13;5105775;27;19926;-52
2022/12/15 11:50:41;;;;;;;;;;;;;;;-147.11;100.00;61570.13;5102630;27;19915;-53
2022/12/15 11:53:22;;;;;;;;;;;;;;;-147.11;100.00;61570.13;5105615;28;19923;-54
2022/12/15 11:55:50;;;;;;;;;;;;;;;-147.11;100.00;61570.13;5102081;27;19920;-52
2022/12/15 11:58:34;;;;;;;;;;;;;;;-147.11;100.00;61570.13;5106987;27;19919;-52
2022/12/15 12:01:31;;;;;;;;;;;;;;;-147.11;100.00;61570.13;5102599;27;19916;-52
2022/12/15 12:04:03;;;;;;;;;;;;;;;-147.11;100.00;61570.13;5031739;28;19945;-52
2022/12/15 12:06:37;;;;;;;;;;;;;;;-147.11;100.00;61570.13;5093044;27;20402;-53
2022/12/15 12:09:11;;;;;;;;;;;;;;;-147.11;100.00;61570.13;5102005;27;19978;-52
2022/12/15 12:11:41;;;;;;;;;;;;;;;-147.11;100.00;61570.13;5105612;27;20465;-52
2022/12/15 12:14:14;;;;;;;;;;;;;;;-147.11;100.00;61570.13;5103244;27;20298;-52
2022/12/15 12:16:45;;;;;;;;;;;;;;;-147.11;100.00;61570.13;5104339;27;20458;-51
2022/12/15 12:19:18;;;;;;;;;;;;;;;-147.11;100.00;61570.13;5098732;27;19912;-52
2022/12/15 12:21:47;;;;;;;;;;;;;;;-147.11;100.00;61570.13;5101114;27;19959;-54
2022/12/15 12:24:18;;;;;;;;;;;;;;;-147.11;100.00;61570.13;5110060;27;19915;-52
2022/12/15 12:26:52;;;;;;;;;;;;;;;-147.11;100.00;61570.13;5102887;27;19923;-52
2022/12/15 12:29:32;;;;;;;;;;;;;;;-147.11;100.00;61570.13;5106645;27;19911;-52
2022/12/15 12:32:09;;;;;;;;;;;;;;;-147.11;100.00;61570.13;5095453;27;19939;-52
2022/12/15 12:34:54;;;;;;;;;;;;;;;-147.11;100.00;61570.13;5091107;27;19923;-52
2022/12/15 12:37:38;;;;;;;;;;;;;;;-147.11;100.00;61570.13;5106025;27;19922;-53
2022/12/15 12:40:06;;;;;;;;;;;;;;;-147.11;100.00;61570.13;5098719;27;19919;-52
2022/12/15 12:42:31;;;;;;;;;;;;;;;-147.11;100.00;61570.13;5107030;27;19962;-54
2022/12/15 12:44:57;;;;;;;;;;;;;;;-147.11;100.00;61570.13;5103452;27;19947;-52
2022/12/15 12:47:28;;;;;;;;;;;;;;;-147.11;100.00;61570.13;5102026;28;20279;-52
2022/12/15 12:49:56;;;;;;;;;;;;;;;-147.11;100.00;61570.13;5108290;27;20429;-53
2022/12/15 12:52:30;;;;;;;;;;;;;;;-147.11;100.00;61570.13;5089989;28;20375;-53
2022/12/15 12:54:57;;;;;;;;;;;;;;;-147.11;100.00;61570.13;5103270;22;19970;-58
2022/12/15 12:57:32;;;;;;;;;;;;;;;-147.11;100.00;61570.13;5066058;28;20011;-62
2022/12/15 13:00:05;;;;;;;;;;;;;;;-147.11;100.00;61570.13;5071104;28;19938;-61
2022/12/15 13:02:33;;;;;;;;;;;;;;;-147.11;100.00;61570.13;5062978;28;19925;-61
2022/12/15 13:05:02;;;;;;;;;;;;;;;-147.11;100.00;61570.13;5070068;28;19916;-58
2022/12/15 13:07:35;;;;;;;;;;;;;;;-147.11;100.00;61570.13;5060294;28;20450;-60
2022/12/15 13:10:20;;;;;;;;;;;;;;;-147.11;100.00;61570.13;5065825;28;20422;-59
2022/12/15 13:12:47;;;;;;;;;;;;;;;-147.11;100.00;61570.13;5061056;28;19916;-56
2022/12/15 13:15:28;;;;;;;;;;;;;;;-147.11;100.00;61570.13;5063488;28;20012;-58
2022/12/15 13:18:06;;;;;;;;;;;;;;;-147.11;100.00;61570.13;5057219;28;20840;-59
2022/12/15 13:20:36;;;;;;;;;;;;;;;-147.11;100.00;61570.13;5068711;28;20003;-60
2022/12/15 13:23:19;;;;;;;;;;;;;;;-147.11;100.00;61570.13;5059575;28;20378;-62
2022/12/15 13:25:46;;;;;;;;;;;;;;;-147.11;100.00;61570.13;5060803;28;19920;-59
2022/12/15 13:28:30;;;;;;;;;;;;;;;-147.11;100.00;61570.13;5068778;28;19946;-60
2022/12/15 13:31:10;;;;;;;;;;;;;;;-147.11;100.00;61570.13;5065935;28;19912;-60
2022/12/15 13:33:43;;;;;;;;;;;;;;;-147.11;100.00;61570.13;5070751;28;19912;-57
2022/12/15 13:36:08;;;;;;;;;;;;;;;-147.11;100.00;61570.13;5067583;28;19924;-56
2022/12/15 13:38:53;;;;;;;;;;;;;;;-147.11;100.00;61570.13;5069331;28;19920;-56
2022/12/15 13:41:22;;;;;;;;;;;;;;;-147.11;100.00;61570.13;5069447;28;19923;-58
2022/12/15 13:43:50;;;;;;;;;;;;;;;-147.11;100.00;61570.13;5062498;28;19924;-59
2022/12/15 13:46:19;;;;;;;;;;;;;;;-147.11;100.00;61570.13;5063716;28;19929;-63
2022/12/15 13:48:46;;;;;;;;;;;;;;;-147.11;100.00;61570.13;5068431;28;19966;-59
2022/12/15 13:51:23;;;;;;;;;;;;;;;-147.11;100.00;61570.13;5062735;28;20757;-59
2022/12/15 13:53:53;;;;;;;;;;;;;;;-147.11;100.00;61570.13;5070944;28;19924;-57
2022/12/15 13:56:38;;;;;;;;;;;;;;;-147.11;100.00;61570.13;5067180;28;19975;-59
2022/12/15 13:59:05;;;;;;;;;;;;;;;-147.11;100.00;61570.13;5061380;28;19924;-56
2022/12/15 14:01:31;;;;;;;;;;;;;;;-147.11;100.00;61570.13;5059508;28;19925;-57
2022/12/15 14:03:57;;;;;;;;;;;;;;;-147.11;100.00;61570.13;5067449;28;20406;-61
2022/12/15 14:06:22;;;;;;;;;;;;;;;-147.11;100.00;61570.13;5032011;28;19921;-59
2022/12/15 14:08:49;;;;;;;;;;;;;;;-147.11;100.00;61570.13;5067731;28;19939;-59
2022/12/15 14:11:21;;;;;;;;;;;;;;;-147.11;100.00;61570.13;5049407;28;19925;-56
2022/12/15 14:13:47;;;;;;;;;;;;;;;-147.11;100.00;61570.13;5073720;28;20007;-58
2022/12/15 14:16:19;;;;;;;;;;;;;;;-147.11;100.00;61570.13;5061068;28;20019;-56
2022/12/15 14:19:02;;;;;;;;;;;;;;;-147.11;100.00;61570.13;5074334;28;20308;-56
2022/12/15 14:21:29;;;;;;;;;;;;;;;-147.11;100.00;61570.13;5060181;28;20292;-55
2022/12/15 14:23:56;;;;;;;;;;;;;;;-147.11;100.00;61570.13;5067864;28;20371;-56
2022/12/15 14:26:26;;;;;;;;;;;;;;;-147.11;100.00;61570.13;5064203;28;20276;-58
2022/12/15 14:28:57;;;;;;;;;;;;;;;-147.11;100.00;61570.13;5054069;28;19969;-57
2022/12/15 14:31:23;;;;;;;;;;;;;;;-147.11;100.00;61570.13;5064171;28;19963;-59
2022/12/15 14:33:52;;;;;;;;;;;;;;;-147.11;100.00;61570.13;5062521;28;20327;-58
2022/12/15 14:36:18;;;;;;;;;;;;;;;-147.11;100.00;61570.13;5065507;28;19943;-59
2022/12/15 14:38:52;;;;;;;;;;;;;;;-147.11;100.00;61570.13;5071313;28;20442;-56
2022/12/15 14:41:27;;;;;;;;;;;;;;;-147.11;100.00;61570.13;5073222;28;19921;-56
2022/12/15 14:44:00;;;;;;;;;;;;;;;-147.11;100.00;61570.13;5067590;28;19960;-57
2022/12/15 14:46:27;;;;;;;;;;;;;;;-147.11;100.00;61570.13;5076864;28;19917;-60